Time;durP1;ratioP1;P1;durP2;ratioP2;P2;SDS_P1;SDS_P2;PMS_P1;PMS_P2;Temp;Humidity;BMP_temperature;BMP_pressure;BME280_temperature;BME280_humidity;BME280_pressure;Samples;Min_cycle;Max_cycle;Signal;HPM_P1;HPM_P2
2023/08/05 00:00:20;;;;;;;6.50;5.90;;;;;;;15.61;100.00;101109.09;6200926;23;20091;-70
2023/08/05 00:02:47;;;;;;;6.03;5.60;;;;;;;15.25;100.00;101055.88;6200531;23;20415;-70
2023/08/05 00:05:13;;;;;;;6.43;5.97;;;;;;;15.80;100.00;101146.66;6156345;23;20687;-72
2023/08/05 00:07:39;;;;;;;6.18;5.78;;;;;;;15.79;100.00;101152.88;6204942;23;20030;-70
2023/08/05 00:10:06;;;;;;;7.85;5.82;;;;;;;15.78;100.00;101155.66;6201951;23;20668;-70
2023/08/05 00:12:33;;;;;;;6.60;6.10;;;;;;;15.81;100.00;101163.38;6203220;23;20055;-70
2023/08/05 00:15:01;;;;;;;6.63;6.13;;;;;;;15.20;100.00;101058.00;6162627;23;20527;-72
2023/08/05 00:17:27;;;;;;;10.00;5.90;;;;;;;15.77;100.00;101159.22;6205416;23;20650;-72
2023/08/05 00:19:54;;;;;;;6.00;5.45;;;;;;;15.58;100.00;101139.25;6203615;23;20032;-70
2023/08/05 00:22:20;;;;;;;6.38;5.97;;;;;;;15.38;100.00;101097.41;6206891;23;20132;-72
2023/08/05 00:24:47;;;;;;;6.78;6.18;;;;;;;15.65;100.00;101131.75;6204435;23;20034;-69
2023/08/05 00:27:13;;;;;;;6.57;6.07;;;;;;;15.44;100.00;101094.38;6171357;23;20025;-72
2023/08/05 00:29:40;;;;;;;6.38;5.93;;;;;;;15.56;100.00;101122.66;6200327;23;20024;-72
2023/08/05 00:32:06;;;;;;;6.40;6.00;;;;;;;15.20;100.00;101065.94;6202728;23;20065;-71
2023/08/05 00:34:34;;;;;;;6.50;6.00;;;;;;;15.14;100.00;101069.81;6201642;23;20051;-71
2023/08/05 00:37:00;;;;;;;8.20;6.88;;;;;;;15.21;100.00;101101.16;6175820;23;20656;-70
2023/08/05 00:39:27;;;;;;;6.80;6.30;;;;;;;15.14;100.00;101074.28;6205039;23;20038;-70
2023/08/05 00:41:53;;;;;;;6.43;6.00;;;;;;;15.59;100.00;101142.75;6171806;23;20039;-70
2023/08/05 00:44:19;;;;;;;7.00;6.50;;;;;;;15.58;100.00;101146.34;6202440;23;20091;-71
2023/08/05 00:46:46;;;;;;;6.53;6.13;;;;;;;15.23;100.00;101081.59;6182128;23;22248;-71
2023/08/05 00:49:13;;;;;;;6.88;6.25;;;;;;;15.30;100.00;101105.84;6173514;23;20012;-71
2023/08/05 00:51:39;;;;;;;7.18;6.47;;;;;;;15.57;100.00;101140.19;6200704;23;20047;-71
2023/08/05 00:54:06;;;;;;;6.95;6.45;;;;;;;15.55;100.00;101127.09;6199383;23;20025;-70
2023/08/05 00:56:33;;;;;;;6.90;6.40;;;;;;;15.56;100.00;101127.94;6202181;23;20032;-71
2023/08/05 00:59:00;;;;;;;6.50;6.00;;;;;;;14.94;100.00;101035.94;6202207;23;20084;-71
2023/08/05 01:01:26;;;;;;;6.97;6.43;;;;;;;15.14;100.00;101055.78;6144393;23;20032;-71
2023/08/05 01:03:53;;;;;;;6.35;5.93;;;;;;;14.96;100.00;101049.88;6162415;23;20162;-70
2023/08/05 01:06:21;;;;;;;6.55;6.15;;;;;;;15.43;100.00;101122.59;6200154;23;20023;-71
2023/08/05 01:08:49;;;;;;;6.95;6.45;;;;;;;15.39;100.00;101121.09;6196137;23;20024;-71
2023/08/05 01:11:16;;;;;;;6.30;5.90;;;;;;;14.81;100.00;101041.13;6177451;23;20043;-71
2023/08/05 01:13:42;;;;;;;6.40;5.95;;;;;;;14.74;100.00;101047.78;6205564;23;20024;-71
2023/08/05 01:16:09;;;;;;;6.97;6.47;;;;;;;14.87;100.00;101098.03;6203565;23;20030;-71
2023/08/05 01:18:38;;;;;;;6.13;5.82;;;;;;;14.97;100.00;101122.94;6203272;23;20088;-71
2023/08/05 01:21:30;;;;;;;6.95;6.45;;;;;;;14.66;100.00;101079.97;6203455;23;20024;-71
2023/08/05 01:24:28;;;;;;;6.72;6.25;;;;;;;14.66;100.00;101106.38;6175131;23;20525;-71
2023/08/05 01:26:55;;;;;;;6.68;6.10;;;;;;;14.45;100.00;101076.88;6207362;23;20071;-71
2023/08/05 01:29:22;;;;;;;7.88;7.10;;;;;;;14.39;100.00;101082.50;6203395;23;20018;-71
2023/08/05 01:31:51;;;;;;;7.13;6.18;;;;;;;14.70;100.00;101147.50;6202282;23;20157;-71
2023/08/05 01:34:18;;;;;;;7.07;6.40;;;;;;;14.71;100.00;101153.63;6195282;23;20336;-71
2023/08/05 01:36:44;;;;;;;6.85;6.35;;;;;;;13.99;100.00;101034.78;6200342;23;20032;-71
2023/08/05 01:39:10;;;;;;;7.28;6.78;;;;;;;14.15;100.00;101055.81;6197799;23;20640;-71
2023/08/05 01:41:37;;;;;;;7.60;6.75;;;;;;;14.65;100.00;101143.47;6174258;23;20026;-74
2023/08/05 01:44:03;;;;;;;6.88;6.38;;;;;;;14.59;100.00;101144.69;6174970;23;20080;-71
2023/08/05 01:46:30;;;;;;;6.72;6.13;;;;;;;14.27;100.00;101113.19;6203277;23;20052;-71
2023/08/05 01:48:56;;;;;;;7.70;6.63;;;;;;;14.36;100.00;101136.34;6179503;23;20017;-71
2023/08/05 01:51:23;;;;;;;6.93;6.43;;;;;;;14.06;100.00;101096.84;6199178;23;20030;-72
2023/08/05 01:53:49;;;;;;;6.60;6.10;;;;;;;14.22;100.00;101136.34;6202025;23;20050;-71
2023/08/05 01:56:16;;;;;;;6.60;6.00;;;;;;;14.30;100.00;101154.38;6198356;23;20028;-70
2023/08/05 01:58:42;;;;;;;6.35;5.85;;;;;;;14.10;100.00;101134.44;6169561;23;20027;-71
2023/08/05 02:01:08;;;;;;;6.53;6.03;;;;;;;13.01;100.00;100962.41;6200287;23;20088;-70
2023/08/05 02:03:35;;;;;;;5.95;5.65;;;;;;;13.50;100.00;101061.50;6197983;23;20032;-72
2023/08/05 02:06:02;;;;;;;6.60;6.10;;;;;;;13.46;100.00;101070.53;6199854;23;20019;-70
2023/08/05 02:08:28;;;;;;;6.78;6.18;;;;;;;13.62;100.00;101107.41;6167363;23;20023;-70
2023/08/05 02:10:54;;;;;;;6.03;5.63;;;;;;;13.94;100.00;101152.97;6197841;23;20040;-71
2023/08/05 02:13:21;;;;;;;6.07;5.60;;;;;;;13.75;100.00;101122.41;6199341;23;20074;-70
2023/08/05 02:15:47;;;;;;;6.00;5.60;;;;;;;13.51;100.00;101098.31;6201905;23;20038;-70
2023/08/05 02:18:14;;;;;;;7.65;6.22;;;;;;;13.60;100.00;101112.75;6199857;22;20265;-71
2023/08/05 02:20:40;;;;;;;5.95;5.57;;;;;;;13.46;100.00;101112.72;6197319;23;20047;-70
2023/08/05 02:23:06;;;;;;;6.55;6.05;;;;;;;12.23;100.00;100919.41;6197533;23;20094;-70
2023/08/05 02:25:33;;;;;;;6.53;6.03;;;;;;;13.35;100.00;101108.06;6176861;23;20027;-70
2023/08/05 02:27:59;;;;;;;6.63;6.22;;;;;;;13.31;100.00;101109.16;6170821;23;20034;-71
2023/08/05 02:30:26;;;;;;;6.93;6.43;;;;;;;12.12;100.00;100920.88;6203241;23;20095;-70
2023/08/05 02:32:52;;;;;;;6.15;5.75;;;;;;;13.00;100.00;101079.25;6168804;23;20760;-70
2023/08/05 02:35:18;;;;;;;6.40;5.80;;;;;;;13.50;100.00;101170.44;6200017;23;20087;-72
2023/08/05 02:37:45;;;;;;;5.70;5.40;;;;;;;13.07;100.00;101106.09;6198354;22;20026;-71
2023/08/05 02:40:12;;;;;;;6.72;6.03;;;;;;;13.43;100.00;101176.16;6166855;23;20087;-71
2023/08/05 02:42:38;;;;;;;6.50;6.07;;;;;;;13.16;100.00;101137.19;6199587;23;20024;-71
2023/08/05 02:45:05;;;;;;;7.05;6.45;;;;;;;13.25;100.00;101133.19;6164639;23;20031;-71
2023/08/05 02:47:31;;;;;;;6.20;5.70;;;;;;;12.45;100.00;100975.22;6200982;23;20023;-71
2023/08/05 02:49:58;;;;;;;10.57;6.22;;;;;;;13.52;100.00;101155.38;6146817;23;20031;-70
2023/08/05 02:52:24;;;;;;;6.82;6.35;;;;;;;13.36;100.00;101147.50;6197564;23;20020;-71
2023/08/05 02:54:51;;;;;;;6.72;6.20;;;;;;;13.03;100.00;101078.22;6189844;23;20500;-71
2023/08/05 02:57:17;;;;;;;7.03;6.43;;;;;;;13.26;100.00;101122.56;6199816;23;20060;-70
2023/08/05 02:59:44;;;;;;;6.65;6.15;;;;;;;13.45;100.00;101145.28;6171236;23;20084;-70
2023/08/05 03:02:10;;;;;;;6.90;6.10;;;;;;;13.29;100.00;101100.44;6175472;23;20024;-73
2023/08/05 03:04:36;;;;;;;6.00;5.60;;;;;;;13.65;100.00;101123.03;6171356;23;20040;-70
2023/08/05 03:07:03;;;;;;;6.78;6.18;;;;;;;13.79;100.00;101146.84;6196895;23;20099;-70
2023/08/05 03:09:30;;;;;;;6.32;5.82;;;;;;;13.48;100.00;101082.66;6198613;23;20087;-70
2023/08/05 03:11:56;;;;;;;6.28;5.88;;;;;;;13.75;100.00;101113.63;6200312;23;20034;-70
2023/08/05 03:14:22;;;;;;;7.00;6.50;;;;;;;13.27;100.00;101087.38;6175993;23;20024;-70
2023/08/05 03:16:49;;;;;;;6.68;6.25;;;;;;;13.52;100.00;101073.63;6200577;23;20034;-70
2023/08/05 03:19:15;;;;;;;6.20;5.80;;;;;;;13.67;100.00;101068.41;6198205;23;20039;-70
2023/08/05 03:21:42;;;;;;;6.25;5.80;;;;;;;14.12;100.00;101111.47;6201424;23;20031;-71
2023/08/05 03:24:08;;;;;;;7.05;6.50;;;;;;;14.08;100.00;101100.22;6198805;23;20024;-70
2023/08/05 03:26:35;;;;;;;6.07;5.68;;;;;;;14.11;100.00;101101.81;6203368;23;20097;-71
2023/08/05 03:29:01;;;;;;;6.40;5.90;;;;;;;14.01;100.00;101098.91;6203339;23;20016;-71
2023/08/05 03:31:29;;;;;;;6.90;6.35;;;;;;;13.67;100.00;101039.38;6205431;23;20016;-71
2023/08/05 03:33:55;;;;;;;6.53;6.03;;;;;;;13.81;100.00;101076.38;6203819;23;20020;-70
2023/08/05 03:36:22;;;;;;;6.25;5.75;;;;;;;13.82;100.00;101104.44;6205775;23;20024;-71
2023/08/05 03:38:48;;;;;;;7.40;6.72;;;;;;;13.49;100.00;101055.38;6204348;23;20026;-70
2023/08/05 03:41:15;;;;;;;6.40;6.00;;;;;;;13.45;100.00;101055.63;6198283;23;20047;-70
2023/08/05 03:43:41;;;;;;;7.88;6.38;;;;;;;13.33;100.00;101039.59;6207704;23;20028;-70
2023/08/05 03:46:07;;;;;;;6.72;6.15;;;;;;;13.55;100.00;101089.31;6202056;23;20661;-70
2023/08/05 03:48:34;;;;;;;6.35;5.82;;;;;;;13.74;100.00;101135.69;6202077;23;20118;-70
2023/08/05 03:51:00;;;;;;;6.35;5.85;;;;;;;12.92;100.00;101008.53;6166937;23;20094;-70
2023/08/05 03:53:27;;;;;;;8.52;6.13;;;;;;;13.09;100.00;101031.31;6202171;23;20020;-71
2023/08/05 03:55:54;;;;;;;8.25;6.65;;;;;;;13.57;100.00;101112.94;6201560;23;20533;-71
2023/08/05 03:58:21;;;;;;;6.85;6.20;;;;;;;13.31;100.00;101067.84;6174817;23;20149;-71
2023/08/05 04:00:47;;;;;;;6.53;6.03;;;;;;;13.41;100.00;101088.38;6202520;23;20043;-70
2023/08/05 04:03:14;;;;;;;6.85;6.25;;;;;;;13.26;100.00;101076.91;6172299;23;20048;-71
2023/08/05 04:05:41;;;;;;;6.97;6.28;;;;;;;13.07;100.00;101063.91;6181622;23;20032;-70
2023/08/05 04:08:07;;;;;;;7.05;6.55;;;;;;;13.59;100.00;101155.91;6176080;23;20083;-67
2023/08/05 04:10:35;;;;;;;6.82;6.32;;;;;;;13.61;100.00;101153.16;6188419;23;20079;-70
2023/08/05 04:13:04;;;;;;;6.32;5.88;;;;;;;13.08;100.00;101077.03;6177132;23;20094;-70
2023/08/05 04:15:33;;;;;;;6.45;5.95;;;;;;;13.57;100.00;101144.59;6154565;23;20107;-70
2023/08/05 04:18:00;;;;;;;6.75;6.13;;;;;;;13.62;100.00;101139.88;6197246;23;20013;-70
2023/08/05 04:20:27;;;;;;;10.75;6.70;;;;;;;13.27;100.00;101083.88;6172835;23;20024;-71
2023/08/05 04:22:53;;;;;;;6.05;5.65;;;;;;;13.72;100.00;101137.56;6205017;23;20091;-71
2023/08/05 04:25:20;;;;;;;7.15;6.55;;;;;;;13.33;100.00;101070.38;6055368;23;20446;-71
2023/08/05 04:27:46;;;;;;;7.15;6.55;;;;;;;13.55;100.00;101098.97;6180459;23;20396;-71
2023/08/05 04:30:15;;;;;;;6.63;6.20;;;;;;;13.81;100.00;101129.13;6175018;23;20044;-71
2023/08/05 04:32:42;;;;;;;7.10;6.50;;;;;;;13.92;100.00;101126.69;6203232;23;20028;-71
2023/08/05 04:35:08;;;;;;;6.40;5.97;;;;;;;13.96;100.00;101072.78;6207368;23;20419;-71
2023/08/05 04:37:35;;;;;;;7.13;6.32;;;;;;;14.54;100.00;101107.13;6204153;23;20405;-71
2023/08/05 04:40:02;;;;;;;6.40;6.00;;;;;;;14.70;100.00;101039.19;6197930;23;20110;-72
2023/08/05 04:42:28;;;;;;;6.82;6.32;;;;;;;15.33;100.00;101056.25;6203675;23;20004;-71
2023/08/05 04:44:55;;;;;;;7.30;6.60;;;;;;;15.45;100.00;101051.09;6183591;23;20033;-73
2023/08/05 04:47:22;;;;;;;6.55;5.95;;;;;;;15.84;100.00;101052.88;6202420;23;20130;-71
2023/08/05 04:49:49;;;;;;;6.70;6.20;;;;;;;16.21;100.00;101038.84;6206257;23;20104;-71
2023/08/05 04:52:15;;;;;;;7.30;6.70;;;;;;;16.05;100.00;100962.31;6193749;23;20876;-71
2023/08/05 04:54:43;;;;;;;7.28;6.68;;;;;;;16.82;100.00;100959.41;6202359;23;20020;-71
2023/08/05 04:57:11;;;;;;;6.57;6.18;;;;;;;16.95;100.00;100902.72;6201044;23;20024;-71
2023/08/05 04:59:38;;;;;;;6.72;6.15;;;;;;;17.62;100.00;100892.31;6202461;23;20035;-71
2023/08/05 05:02:04;;;;;;;6.40;6.00;;;;;;;18.13;100.00;100851.97;6179709;23;20030;-71
2023/08/05 05:04:31;;;;;;;6.70;6.30;;;;;;;18.37;100.00;100789.81;6200782;23;20355;-71
2023/08/05 05:06:58;;;;;;;6.85;6.15;;;;;;;19.19;97.23;100818.34;6199536;23;20090;-71
2023/08/05 05:09:24;;;;;;;9.63;6.70;;;;;;;17.86;90.18;100504.59;6197939;23;20358;-71
2023/08/05 05:11:54;;;;;;;6.65;6.25;;;;;;;18.96;86.61;100632.31;6200608;23;20050;-71
2023/08/05 05:14:21;;;;;;;7.47;6.93;;;;;;;18.89;86.09;100634.69;6144521;23;20038;-70
2023/08/05 05:16:47;;;;;;;6.70;6.20;;;;;;;18.74;83.74;100596.09;6201211;23;20040;-71
2023/08/05 05:19:14;;;;;;;9.02;7.65;;;;;;;18.02;84.75;100525.34;6201789;23;20101;-71
2023/08/05 05:21:40;;;;;;;6.88;6.43;;;;;;;17.87;86.01;100546.94;6196383;23;20021;-71
2023/08/05 05:24:07;;;;;;;6.93;6.13;;;;;;;18.23;88.20;100666.09;6170042;23;20957;-69
2023/08/05 05:26:33;;;;;;;7.00;6.50;;;;;;;17.64;89.58;100617.88;6199207;23;20024;-70
2023/08/05 05:29:00;;;;;;;6.30;5.90;;;;;;;17.96;90.71;100680.75;6178408;23;20030;-71
2023/08/05 05:31:26;;;;;;;6.25;5.85;;;;;;;17.66;91.20;100657.53;6194432;23;20087;-71
2023/08/05 05:33:53;;;;;;;6.05;5.75;;;;;;;17.11;92.28;100616.00;6189319;23;20356;-71
2023/08/05 05:36:19;;;;;;;6.60;6.10;;;;;;;17.17;93.86;100688.06;6203367;23;20103;-72
2023/08/05 05:38:45;;;;;;;7.30;6.40;;;;;;;17.07;94.29;100678.19;6183451;23;20032;-71
2023/08/05 05:41:12;;;;;;;6.78;6.35;;;;;;;16.80;94.78;100651.19;6195994;23;20044;-70
2023/08/05 05:43:38;;;;;;;6.82;6.43;;;;;;;17.29;96.07;100754.22;6201091;22;20470;-71
2023/08/05 05:46:05;;;;;;;6.45;6.03;;;;;;;17.63;95.23;100746.22;6176394;23;20667;-70
2023/08/05 05:48:32;;;;;;;6.75;6.25;;;;;;;18.66;92.31;100771.38;6202010;23;20020;-70
2023/08/05 05:50:58;;;;;;;6.82;6.32;;;;;;;18.03;85.47;100540.31;6181034;23;20227;-71
2023/08/05 05:53:25;;;;;;;7.22;6.72;;;;;;;18.64;85.47;100643.09;6146004;23;20027;-70
2023/08/05 05:55:54;;;;;;;7.10;6.60;;;;;;;18.97;84.18;100607.41;6176170;23;20316;-71
2023/08/05 05:58:21;;;;;;;7.05;6.60;;;;;;;18.96;82.90;100615.53;6198847;23;20046;-70
2023/08/05 06:00:47;;;;;;;6.50;6.10;;;;;;;19.40;82.35;100635.47;6199712;23;20024;-70
2023/08/05 06:03:14;;;;;;;6.90;6.50;;;;;;;18.93;81.89;100585.56;6196819;22;20380;-70
2023/08/05 06:05:40;;;;;;;6.97;6.57;;;;;;;19.12;84.10;100634.44;6200667;23;20024;-71
2023/08/05 06:08:07;;;;;;;6.72;6.22;;;;;;;19.12;80.78;100560.81;6167202;23;20023;-69
2023/08/05 06:10:37;;;;;;;6.85;6.45;;;;;;;18.95;81.37;100577.44;6200042;23;20020;-70
2023/08/05 06:13:04;;;;;;;6.25;5.93;;;;;;;18.45;82.60;100548.19;6204197;23;20071;-71
2023/08/05 06:15:31;;;;;;;7.60;7.00;;;;;;;18.33;84.19;100566.03;6199899;23;20692;-69
2023/08/05 06:17:58;;;;;;;6.63;6.15;;;;;;;18.46;85.06;100614.50;6200726;23;20087;-70
2023/08/05 06:20:24;;;;;;;7.10;6.60;;;;;;;17.92;86.91;100591.69;6199918;23;20034;-70
2023/08/05 06:22:51;;;;;;;8.63;6.70;;;;;;;18.09;88.56;100660.13;6197788;23;20589;-70
2023/08/05 06:25:17;;;;;;;6.88;6.47;;;;;;;17.69;90.29;100673.22;6153044;23;20076;-71
2023/08/05 06:27:44;;;;;;;7.40;6.80;;;;;;;17.69;90.91;100667.91;6179358;23;20042;-71
2023/08/05 06:30:11;;;;;;;7.32;6.63;;;;;;;17.91;92.19;100728.06;6204508;23;20024;-70
2023/08/05 06:32:37;;;;;;;11.07;7.13;;;;;;;16.93;91.58;100540.59;6172542;23;20096;-70
2023/08/05 06:35:04;;;;;;;8.00;7.20;;;;;;;18.23;90.54;100711.25;6178722;23;20031;-71
2023/08/05 06:37:30;;;;;;;7.63;6.97;;;;;;;18.53;90.23;100737.06;6199331;23;20019;-70
2023/08/05 06:39:57;;;;;;;6.97;6.47;;;;;;;18.43;89.09;100698.94;6173363;23;20095;-70
2023/08/05 06:42:25;;;;;;;7.32;6.75;;;;;;;18.67;88.69;100710.13;6171081;23;20044;-71
2023/08/05 06:44:53;;;;;;;7.00;6.50;;;;;;;18.43;86.88;100651.13;6200333;23;20047;-71
2023/08/05 06:47:20;;;;;;;7.35;6.80;;;;;;;18.52;87.36;100672.44;6182749;23;20059;-70
2023/08/05 06:49:46;;;;;;;9.32;6.97;;;;;;;18.28;89.07;100672.72;6204739;23;20020;-72
2023/08/05 06:52:13;;;;;;;7.47;6.88;;;;;;;18.54;89.38;100715.66;6169554;23;20581;-71
2023/08/05 06:54:39;;;;;;;7.75;7.00;;;;;;;18.81;90.09;100748.84;6203586;23;20095;-70
2023/08/05 06:57:06;;;;;;;9.73;6.68;;;;;;;18.92;87.41;100663.69;6153039;23;20678;-70
2023/08/05 06:59:33;;;;;;;6.90;6.40;;;;;;;19.31;85.88;100653.13;6200149;23;20036;-70
2023/08/05 07:02:00;;;;;;;7.15;6.55;;;;;;;19.87;82.57;100648.97;6189588;23;20032;-70
2023/08/05 07:04:27;;;;;;;8.00;7.15;;;;;;;19.66;81.80;100581.66;6208968;23;20087;-71
2023/08/05 07:06:53;;;;;;;8.73;7.80;;;;;;;19.96;81.96;100615.28;6185542;23;20012;-71
2023/08/05 07:09:19;;;;;;;8.35;7.60;;;;;;;20.41;78.50;100547.97;6184063;23;20020;-71
2023/08/05 07:11:46;;;;;;;7.38;6.78;;;;;;;19.65;75.30;100311.94;6213603;22;20940;-69
2023/08/05 07:14:12;;;;;;;7.22;6.60;;;;;;;19.93;71.99;100280.00;6184330;23;20100;-70
2023/08/05 07:16:39;;;;;;;7.47;6.78;;;;;;;19.66;74.36;100347.38;6207815;22;20035;-71
2023/08/05 07:19:05;;;;;;;7.32;6.70;;;;;;;19.21;77.00;100406.66;6183036;22;20052;-71
2023/08/05 07:21:32;;;;;;;7.03;6.35;;;;;;;19.16;79.61;100504.66;6210207;22;20026;-71
2023/08/05 07:23:58;;;;;;;7.47;6.72;;;;;;;19.34;82.30;100596.09;6206845;22;20114;-70
2023/08/05 07:26:25;;;;;;;7.00;6.50;;;;;;;19.60;79.59;100521.00;6183170;22;20096;-71
2023/08/05 07:28:51;;;;;;;7.10;6.60;;;;;;;20.13;74.85;100437.88;6193544;23;20026;-70
2023/08/05 07:31:18;;;;;;;7.30;6.68;;;;;;;20.26;76.16;100493.47;6207843;22;20091;-70
2023/08/05 07:33:46;;;;;;;7.30;6.70;;;;;;;20.83;74.72;100514.66;6181790;22;20077;-71
2023/08/05 07:36:15;;;;;;;7.40;6.80;;;;;;;21.21;70.10;100385.41;6205316;22;20012;-70
2023/08/05 07:38:44;;;;;;;7.20;6.70;;;;;;;21.26;68.68;100331.53;6189619;23;20040;-70
2023/08/05 07:41:12;;;;;;;7.28;6.68;;;;;;;20.99;68.32;100282.72;6185322;23;20058;-71
2023/08/05 07:43:39;;;;;;;7.45;6.93;;;;;;;21.03;67.88;100289.41;6180097;22;20083;-72
2023/08/05 07:46:06;;;;;;;7.30;6.85;;;;;;;21.56;68.27;100391.63;6192360;23;20025;-71
2023/08/05 07:48:37;;;;;;;6.88;6.38;;;;;;;21.43;68.29;100381.41;6206685;22;20028;-70
2023/08/05 07:51:05;;;;;;;6.82;6.40;;;;;;;21.31;69.59;100404.00;6187024;23;20020;-70
2023/08/05 07:53:38;;;;;;;8.25;7.53;;;;;;;21.16;69.38;100365.50;6206738;22;20020;-73
2023/08/05 07:56:22;;;;;;;6.70;6.30;;;;;;;21.44;68.57;100355.53;6183757;23;20047;-70
2023/08/05 07:58:49;;;;;;;7.13;6.63;;;;;;;21.89;65.83;100325.84;6212034;22;20020;-71
2023/08/05 08:01:19;;;;;;;7.20;6.53;;;;;;;22.15;64.90;100299.97;6203542;22;20450;-70
2023/08/05 08:03:47;;;;;;;7.05;6.45;;;;;;;22.26;65.89;100351.31;6181599;22;20028;-71
2023/08/05 08:06:15;;;;;;;7.10;6.60;;;;;;;21.75;65.07;100234.78;6180038;22;20031;-72
2023/08/05 08:08:44;;;;;;;7.05;6.55;;;;;;;22.02;65.32;100303.97;6204915;22;20012;-71
2023/08/05 08:11:12;;;;;;;6.93;6.32;;;;;;;22.30;65.59;100351.84;6204764;22;20094;-71
2023/08/05 08:13:39;;;;;;;7.45;6.85;;;;;;;22.21;64.84;100284.16;6173259;23;20069;-70
2023/08/05 08:16:06;;;;;;;7.80;7.22;;;;;;;22.18;65.12;100295.16;6201216;23;20052;-69
2023/08/05 08:18:32;;;;;;;7.88;7.18;;;;;;;21.86;63.60;100207.78;6177002;23;20016;-71
2023/08/05 08:20:59;;;;;;;7.70;7.10;;;;;;;22.19;63.83;100288.81;6179869;23;20099;-72
2023/08/05 08:23:25;;;;;;;7.25;6.65;;;;;;;22.25;63.99;100309.56;6171177;23;20107;-71
2023/08/05 08:25:51;;;;;;;7.00;6.60;;;;;;;21.98;63.30;100227.00;6202960;23;20406;-72
2023/08/05 08:28:18;;;;;;;6.93;6.53;;;;;;;22.44;62.69;100276.31;6153278;23;20027;-71
2023/08/05 08:30:55;;;;;;;8.05;7.35;;;;;;;21.97;61.76;100158.50;6194878;23;20050;-71
2023/08/05 08:33:23;;;;;;;7.90;7.13;;;;;;;22.12;63.30;100258.41;6178565;23;20502;-71
2023/08/05 08:35:50;;;;;;;7.38;6.68;;;;;;;22.06;63.74;100262.56;6195539;23;20048;-70
2023/08/05 08:38:17;;;;;;;6.80;6.40;;;;;;;21.97;61.68;100171.88;6168277;23;20072;-70
2023/08/05 08:40:48;;;;;;;7.13;6.70;;;;;;;22.05;62.72;100203.94;6200551;23;20472;-70
2023/08/05 08:43:18;;;;;;;6.60;6.20;;;;;;;22.34;63.38;100272.16;6199480;22;20524;-70
2023/08/05 08:45:47;;;;;;;7.10;6.50;;;;;;;21.71;64.43;100253.00;6173310;23;20022;-72
2023/08/05 08:48:15;;;;;;;7.20;6.70;;;;;;;21.85;60.42;100097.41;6197775;23;20028;-71
2023/08/05 08:50:42;;;;;;;7.20;6.65;;;;;;;22.87;60.66;100222.56;6179940;23;20028;-70
2023/08/05 08:53:12;;;;;;;6.85;6.45;;;;;;;23.25;59.91;100214.75;6203775;23;20020;-71
2023/08/05 08:55:40;;;;;;;9.77;7.03;;;;;;;23.16;57.81;100101.53;6149290;23;20021;-72
2023/08/05 08:58:06;;;;;;;7.07;6.63;;;;;;;22.54;59.18;100072.91;6200527;23;20025;-70
2023/08/05 09:00:34;;;;;;;10.48;7.53;;;;;;;22.46;59.80;100123.72;6172216;23;20029;-70
2023/08/05 09:03:01;;;;;;;8.60;6.70;;;;;;;21.68;61.07;100085.06;6202166;23;20100;-70
2023/08/05 09:05:39;;;;;;;7.00;6.55;;;;;;;22.32;61.04;100210.00;6170003;23;21068;-70
2023/08/05 09:08:07;;;;;;;7.30;6.80;;;;;;;21.88;62.60;100189.75;6176847;23;20038;-71
2023/08/05 09:10:33;;;;;;;6.70;6.30;;;;;;;22.07;62.09;100207.28;6200102;23;20093;-71
2023/08/05 09:13:00;;;;;;;7.20;6.70;;;;;;;22.06;60.84;100153.00;6205680;23;20097;-72
2023/08/05 09:15:35;;;;;;;6.30;6.00;;;;;;;22.41;59.72;100161.69;6167648;23;20031;-71
2023/08/05 09:18:03;;;;;;;8.02;7.47;;;;;;;22.60;58.73;100128.38;6201062;23;20512;-71
2023/08/05 09:20:33;;;;;;;6.88;6.47;;;;;;;23.42;57.60;100191.44;6179664;23;20037;-71
2023/08/05 09:23:03;;;;;;;6.60;6.20;;;;;;;22.88;56.42;100026.25;6174224;23;20685;-70
2023/08/05 09:25:31;;;;;;;6.55;6.15;;;;;;;23.89;56.16;100164.50;6196371;23;20027;-71
2023/08/05 09:28:01;;;;;;;6.85;6.35;;;;;;;23.21;55.64;100010.84;6177602;23;20016;-71
2023/08/05 09:30:27;;;;;;;6.75;6.35;;;;;;;22.90;57.61;100133.94;6202192;23;20020;-71
2023/08/05 09:32:54;;;;;;;6.07;5.75;;;;;;;23.05;58.18;100175.06;6206238;23;20732;-72
2023/08/05 09:35:21;;;;;;;6.70;6.30;;;;;;;23.20;56.68;100113.56;6198767;23;20024;-70
2023/08/05 09:37:49;;;;;;;6.50;6.10;;;;;;;22.36;57.31;100072.28;6179129;23;20571;-72
2023/08/05 09:40:18;;;;;;;6.75;6.35;;;;;;;22.48;57.06;100070.91;6204700;23;20028;-71
2023/08/05 09:42:48;;;;;;;6.97;6.28;;;;;;;22.46;57.35;100121.06;6202770;23;20050;-71
2023/08/05 09:45:19;;;;;;;6.63;6.15;;;;;;;23.02;56.56;100164.69;6178602;23;20576;-71
2023/08/05 09:47:47;;;;;;;7.00;6.30;;;;;;;22.72;55.89;100083.34;6176203;23;20026;-71
2023/08/05 09:50:15;;;;;;;7.30;6.70;;;;;;;23.89;54.55;100177.06;6206380;23;20249;-70
2023/08/05 09:52:43;;;;;;;6.85;6.45;;;;;;;23.85;54.36;100149.81;6206062;23;20024;-71
2023/08/05 09:55:14;;;;;;;7.25;6.70;;;;;;;23.26;52.83;100016.47;6199400;23;20023;-71
2023/08/05 09:57:42;;;;;;;6.63;6.22;;;;;;;23.56;54.92;100197.88;6169873;23;20028;-72
2023/08/05 10:00:11;;;;;;;6.93;6.53;;;;;;;24.14;53.07;100174.19;6204297;23;20605;-70
2023/08/05 10:02:43;;;;;;;6.90;6.50;;;;;;;23.65;54.05;100178.03;6175400;23;20024;-71
2023/08/05 10:05:10;;;;;;;6.45;6.15;;;;;;;23.91;53.94;100183.06;6204209;23;20039;-70
2023/08/05 10:07:39;;;;;;;6.78;6.28;;;;;;;23.50;53.26;100101.16;6199874;23;20020;-71
2023/08/05 10:10:09;;;;;;;6.70;6.30;;;;;;;23.13;53.66;100103.72;6201426;23;20033;-71
2023/08/05 10:12:41;;;;;;;6.50;6.07;;;;;;;23.07;54.10;100127.53;6177892;23;20074;-71
2023/08/05 10:15:10;;;;;;;6.68;6.28;;;;;;;23.40;54.01;100169.34;6203107;23;20747;-71
2023/08/05 10:17:39;;;;;;;6.80;6.25;;;;;;;23.44;53.30;100131.31;6203068;23;20768;-71
2023/08/05 10:20:07;;;;;;;6.93;6.40;;;;;;;23.84;53.10;100148.13;6169433;23;20030;-71
2023/08/05 10:22:37;;;;;;;6.47;6.13;;;;;;;23.75;50.89;100027.78;6200616;23;20027;-71
2023/08/05 10:25:03;;;;;;;5.95;5.65;;;;;;;23.28;52.09;100059.13;6171291;23;20030;-72
2023/08/05 10:27:37;;;;;;;6.63;6.22;;;;;;;23.47;53.04;100138.16;6198606;23;20978;-71
2023/08/05 10:30:06;;;;;;;6.40;6.00;;;;;;;23.54;53.17;100146.34;6158153;23;20660;-71
2023/08/05 10:32:34;;;;;;;6.60;6.20;;;;;;;23.14;51.30;100022.44;6199217;23;20024;-72
2023/08/05 10:35:26;;;;;;;6.28;5.97;;;;;;;22.99;53.72;100143.59;6200904;23;21004;-74
2023/08/05 10:38:11;;;;;;;6.00;5.70;;;;;;;23.20;52.51;100147.53;6200021;23;20023;-72
2023/08/05 10:40:51;;;;;;;6.05;5.72;;;;;;;23.73;52.23;100199.41;6204110;23;20028;-72
2023/08/05 10:43:30;;;;;;;6.38;5.97;;;;;;;24.21;51.08;100175.13;6171747;23;20096;-72
2023/08/05 10:45:58;;;;;;;6.05;5.75;;;;;;;24.29;49.39;100092.75;6200715;23;20646;-72
2023/08/05 10:48:47;;;;;;;6.35;6.00;;;;;;;24.19;49.84;100107.44;6196911;23;20016;-72
2023/08/05 10:51:17;;;;;;;6.25;5.90;;;;;;;23.96;48.91;100024.41;6174911;23;20039;-71
2023/08/05 10:53:58;;;;;;;6.20;5.90;;;;;;;24.39;48.42;100079.03;6201322;23;20648;-73
2023/08/05 10:56:35;;;;;;;6.57;6.00;;;;;;;24.47;49.70;100147.88;6168473;23;20028;-70
2023/08/05 10:59:04;;;;;;;6.45;6.05;;;;;;;24.58;48.25;100087.59;6196505;23;20028;-71
2023/08/05 11:01:57;;;;;;;6.53;6.13;;;;;;;24.34;50.06;100137.78;6199435;23;20031;-70
2023/08/05 11:04:32;;;;;;;6.30;6.00;;;;;;;24.06;50.38;100145.59;6178841;23;20553;-70
2023/08/05 11:07:00;;;;;;;6.10;5.80;;;;;;;24.12;50.19;100093.13;6197973;23;20044;-70
2023/08/05 11:09:32;;;;;;;6.53;6.03;;;;;;;24.16;50.59;100132.78;6152917;23;20027;-70
2023/08/05 11:11:58;;;;;;;6.63;6.13;;;;;;;24.56;51.07;100235.34;6173817;23;20008;-70
2023/08/05 11:14:27;;;;;;;6.72;6.20;;;;;;;24.49;49.49;100140.47;6171729;23;20024;-70
2023/08/05 11:17:02;;;;;;;6.82;6.18;;;;;;;23.55;49.96;100019.41;6176522;23;20161;-74
2023/08/05 11:19:49;;;;;;;6.88;6.15;;;;;;;23.80;50.39;100106.63;6198994;23;20288;-70
2023/08/05 11:22:28;;;;;;;6.13;5.72;;;;;;;23.97;50.98;100152.88;6194171;23;20173;-71
2023/08/05 11:24:58;;;;;;;6.38;5.97;;;;;;;24.06;50.63;100145.59;6176623;23;20085;-70